Time;durP1;ratioP1;P1;durP2;ratioP2;P2;SDS_P1;SDS_P2;PMS_P1;PMS_P2;Temp;Humidity;BMP_temperature;BMP_pressure;BME280_temperature;BME280_humidity;BME280_pressure;Samples;Min_cycle;Max_cycle;Signal;HPM_P1;HPM_P2
2023/01/22 00:00:56;;;;;;;;;;;1.10;95.70;;;;;;5001616;28;19933;-75
2023/01/22 00:03:23;;;;;;;;;;;1.10;95.70;;;;;;5009742;28;20648;-75
2023/01/22 00:05:51;;;;;;;;;;;1.10;95.70;;;;;;5008098;28;19933;-76
2023/01/22 00:08:17;;;;;;;;;;;1.10;95.80;;;;;;5005815;28;19929;-75
2023/01/22 00:10:48;;;;;;;;;;;1.10;95.80;;;;;;5005173;28;19929;-74
2023/01/22 00:13:14;;;;;;;;;;;1.10;95.80;;;;;;5005959;28;19941;-76
2023/01/22 00:15:41;;;;;;;;;;;1.10;95.80;;;;;;4999517;28;19930;-75
2023/01/22 00:18:09;;;;;;;;;;;1.10;95.80;;;;;;4997540;28;19940;-75
2023/01/22 00:20:36;;;;;;;;;;;1.10;95.80;;;;;;4998748;28;19929;-75
2023/01/22 00:23:02;;;;;;;;;;;1.10;95.80;;;;;;5005713;28;19929;-76
2023/01/22 00:25:29;;;;;;;;;;;1.20;95.80;;;;;;5010753;28;19988;-75
2023/01/22 00:27:55;;;;;;;;;;;1.10;95.80;;;;;;5008552;28;19932;-74
2023/01/22 00:30:22;;;;;;;;;;;1.10;95.80;;;;;;5009558;28;20446;-75
2023/01/22 00:32:48;;;;;;;;;;;1.20;95.80;;;;;;5014021;28;19996;-74
2023/01/22 00:35:16;;;;;;;;;;;1.20;95.80;;;;;;5010530;28;19930;-75
2023/01/22 00:37:43;;;;;;;;;;;1.10;95.70;;;;;;5006680;28;19936;-75
2023/01/22 00:40:10;;;;;;;;;;;1.10;95.70;;;;;;5011806;28;19933;-74
2023/01/22 00:42:38;;;;;;;;;;;1.10;95.80;;;;;;5002090;28;19964;-74
2023/01/22 00:45:05;;;;;;;;;;;1.10;95.80;;;;;;5009061;28;20007;-74
2023/01/22 00:47:31;;;;;;;;;;;1.20;95.80;;;;;;5002297;28;19929;-75
2023/01/22 00:49:58;;;;;;;;;;;1.10;95.80;;;;;;5006109;28;20419;-76
2023/01/22 00:52:26;;;;;;;;;;;1.20;95.80;;;;;;5011711;28;19929;-76
2023/01/22 00:54:52;;;;;;;;;;;1.10;95.80;;;;;;5010340;28;20594;-75
2023/01/22 00:57:20;;;;;;;;;;;1.10;95.90;;;;;;5010673;28;19940;-75
2023/01/22 00:59:47;;;;;;;;;;;1.10;95.90;;;;;;5010972;28;19932;-75
2023/01/22 01:02:14;;;;;;;;;;;1.10;95.90;;;;;;5004989;28;19929;-75
2023/01/22 01:04:40;;;;;;;;;;;1.10;95.90;;;;;;5012771;28;19929;-75
2023/01/22 01:07:07;;;;;;;;;;;1.10;95.80;;;;;;5014708;28;19929;-75
2023/01/22 01:09:35;;;;;;;;;;;1.10;95.90;;;;;;5013840;28;19936;-74
2023/01/22 01:12:01;;;;;;;;;;;1.10;95.90;;;;;;5009185;28;19942;-75
2023/01/22 01:14:28;;;;;;;;;;;1.10;95.90;;;;;;5015010;28;20350;-75
2023/01/22 01:16:55;;;;;;;;;;;1.20;95.90;;;;;;5010195;28;19937;-75
2023/01/22 01:19:21;;;;;;;;;;;1.10;95.90;;;;;;5005443;28;19932;-74
2023/01/22 01:21:48;;;;;;;;;;;1.10;95.90;;;;;;5005388;28;19934;-76
2023/01/22 01:24:14;;;;;;;;;;;1.20;95.90;;;;;;5007224;28;19936;-75
2023/01/22 01:26:43;;;;;;;;;;;1.10;95.90;;;;;;5006383;28;19936;-75
2023/01/22 01:29:09;;;;;;;;;;;1.10;95.90;;;;;;5011357;28;20431;-75
2023/01/22 01:31:37;;;;;;;;;;;1.10;95.90;;;;;;5005798;28;19933;-75
2023/01/22 01:34:03;;;;;;;;;;;1.10;95.90;;;;;;5012981;28;19940;-76
2023/01/22 01:36:30;;;;;;;;;;;1.20;96.00;;;;;;5006874;28;19937;-76
2023/01/22 01:38:57;;;;;;;;;;;1.10;95.90;;;;;;5008307;28;20007;-76
2023/01/22 01:41:24;;;;;;;;;;;1.10;95.90;;;;;;5006692;28;19936;-76
2023/01/22 01:44:09;;;;;;;;;;;1.20;96.00;;;;;;5008601;28;20100;-75
2023/01/22 01:46:36;;;;;;;;;;;1.10;96.10;;;;;;5007602;28;19929;-75
2023/01/22 01:49:03;;;;;;;;;;;1.10;96.10;;;;;;5007531;28;19936;-75
2023/01/22 01:51:31;;;;;;;;;;;1.10;96.10;;;;;;5006058;28;19930;-75
2023/01/22 01:53:59;;;;;;;;;;;1.10;96.10;;;;;;5004512;28;19929;-75
2023/01/22 01:56:28;;;;;;;;;;;1.20;96.10;;;;;;5008287;28;19991;-76
2023/01/22 01:58:55;;;;;;;;;;;1.10;96.00;;;;;;5006622;28;19933;-75
2023/01/22 02:01:23;;;;;;;;;;;1.10;96.00;;;;;;5001701;28;19933;-75
2023/01/22 02:03:50;;;;;;;;;;;1.20;96.00;;;;;;5005305;28;19936;-74
2023/01/22 02:06:18;;;;;;;;;;;1.10;96.00;;;;;;5006359;28;19929;-76
2023/01/22 02:08:46;;;;;;;;;;;1.10;96.00;;;;;;5011331;28;20369;-75
2023/01/22 02:11:13;;;;;;;;;;;1.10;96.00;;;;;;5006920;28;19936;-76
2023/01/22 02:13:42;;;;;;;;;;;1.20;96.00;;;;;;5005997;28;20674;-76
2023/01/22 02:16:10;;;;;;;;;;;1.20;96.10;;;;;;5010657;28;19929;-75
2023/01/22 02:18:38;;;;;;;;;;;1.20;96.10;;;;;;5005346;28;19929;-76
2023/01/22 02:21:20;;;;;;;;;;;1.20;96.20;;;;;;5006208;28;19929;-76
2023/01/22 02:23:47;;;;;;;;;;;1.20;96.10;;;;;;5004861;28;20322;-75
2023/01/22 02:26:14;;;;;;;;;;;1.20;96.10;;;;;;5005606;28;19944;-75
2023/01/22 02:28:40;;;;;;;;;;;1.20;96.10;;;;;;5006555;28;19930;-75
2023/01/22 02:31:07;;;;;;;;;;;1.20;96.10;;;;;;5003277;28;19929;-76
2023/01/22 02:33:34;;;;;;;;;;;1.20;96.10;;;;;;5007021;28;19968;-76
2023/01/22 02:36:00;;;;;;;;;;;1.20;96.10;;;;;;5007235;28;19940;-76
2023/01/22 02:38:27;;;;;;;;;;;1.20;96.10;;;;;;5006034;28;19929;-76
2023/01/22 02:40:55;;;;;;;;;;;1.20;96.10;;;;;;5004002;28;19937;-75
2023/01/22 02:43:21;;;;;;;;;;;1.10;96.10;;;;;;5004511;28;19940;-75
2023/01/22 02:45:48;;;;;;;;;;;1.20;96.10;;;;;;5004056;28;21103;-75
2023/01/22 02:48:14;;;;;;;;;;;1.20;96.20;;;;;;5008685;28;19929;-75
2023/01/22 02:50:43;;;;;;;;;;;1.20;96.10;;;;;;5001403;28;20407;-76
2023/01/22 02:53:10;;;;;;;;;;;1.20;96.10;;;;;;5004887;28;20049;-75
2023/01/22 02:55:37;;;;;;;;;;;1.10;96.10;;;;;;5007285;28;19959;-76
2023/01/22 02:58:05;;;;;;;;;;;1.20;96.20;;;;;;5008271;28;19940;-75
2023/01/22 03:00:31;;;;;;;;;;;1.20;96.20;;;;;;5000344;28;20489;-75
2023/01/22 03:02:58;;;;;;;;;;;1.20;96.20;;;;;;5008614;28;19936;-75
2023/01/22 03:05:25;;;;;;;;;;;1.20;96.20;;;;;;5006770;28;19941;-75
2023/01/22 03:07:51;;;;;;;;;;;1.20;96.20;;;;;;5010473;28;20020;-75
2023/01/22 03:10:19;;;;;;;;;;;1.20;96.30;;;;;;5005993;28;20400;-75
2023/01/22 03:21:14;;;;;;;;;;;1.20;96.20;;;;;;5002540;28;19932;-75
2023/01/22 03:23:41;;;;;;;;;;;1.20;96.20;;;;;;5002059;28;20352;-75
2023/01/22 03:26:08;;;;;;;;;;;1.20;96.30;;;;;;5005374;28;19936;-76
2023/01/22 03:28:35;;;;;;;;;;;1.20;96.30;;;;;;5010098;28;19929;-75
2023/01/22 03:31:03;;;;;;;;;;;1.20;96.30;;;;;;5006878;28;19933;-75
2023/01/22 03:33:30;;;;;;;;;;;1.20;96.30;;;;;;5007713;28;20438;-76
2023/01/22 03:35:59;;;;;;;;;;;1.20;96.30;;;;;;5007716;28;19933;-75
2023/01/22 03:38:25;;;;;;;;;;;1.20;96.30;;;;;;5004024;28;19930;-76
2023/01/22 03:40:52;;;;;;;;;;;1.20;96.40;;;;;;5006205;28;19934;-76
2023/01/22 03:43:18;;;;;;;;;;;1.20;96.40;;;;;;5005145;28;19936;-75
2023/01/22 03:45:45;;;;;;;;;;;1.20;96.40;;;;;;5003683;28;20326;-75
2023/01/22 03:48:13;;;;;;;;;;;1.20;96.40;;;;;;5005071;28;19925;-75
2023/01/22 03:50:39;;;;;;;;;;;1.20;96.30;;;;;;5004889;28;19937;-76
2023/01/22 03:53:06;;;;;;;;;;;1.20;96.40;;;;;;5008583;28;19980;-76
2023/01/22 03:55:32;;;;;;;;;;;1.20;96.40;;;;;;5001691;28;20334;-75
2023/01/22 03:57:59;;;;;;;;;;;1.20;96.40;;;;;;5011271;28;19933;-75
2023/01/22 04:00:25;;;;;;;;;;;1.20;96.40;;;;;;5005435;28;19987;-75
2023/01/22 04:02:53;;;;;;;;;;;1.20;96.40;;;;;;5008158;28;19925;-76
2023/01/22 04:05:21;;;;;;;;;;;1.20;96.40;;;;;;5009175;28;20027;-75
2023/01/22 04:07:49;;;;;;;;;;;1.20;96.50;;;;;;5008678;28;19976;-75
2023/01/22 04:10:16;;;;;;;;;;;1.20;96.50;;;;;;5006523;28;19934;-75
2023/01/22 04:12:42;;;;;;;;;;;1.20;96.50;;;;;;5009498;28;20832;-75
2023/01/22 04:15:10;;;;;;;;;;;1.20;96.50;;;;;;5010302;28;19944;-75
2023/01/22 04:17:36;;;;;;;;;;;1.20;96.60;;;;;;5012889;28;20430;-76
2023/01/22 04:20:03;;;;;;;;;;;1.20;96.60;;;;;;5004464;28;19937;-76
2023/01/22 04:22:31;;;;;;;;;;;1.20;96.60;;;;;;5008582;28;19936;-76
2023/01/22 04:24:57;;;;;;;;;;;1.20;96.60;;;;;;5007757;28;19933;-77
2023/01/22 04:27:24;;;;;;;;;;;1.20;96.60;;;;;;5007256;28;19936;-75
2023/01/22 04:29:50;;;;;;;;;;;1.20;96.50;;;;;;5007795;28;19937;-75
2023/01/22 04:32:17;;;;;;;;;;;1.20;96.60;;;;;;5011317;28;20406;-75
2023/01/22 04:34:45;;;;;;;;;;;1.20;96.50;;;;;;5005892;28;19933;-76
2023/01/22 04:37:12;;;;;;;;;;;1.20;96.50;;;;;;5009659;28;20443;-75
2023/01/22 04:39:40;;;;;;;;;;;1.20;96.50;;;;;;5009725;28;19971;-75
2023/01/22 04:42:06;;;;;;;;;;;1.20;96.50;;;;;;4998317;28;19983;-75
2023/01/22 04:44:33;;;;;;;;;;;1.20;96.50;;;;;;5007602;28;19952;-75
2023/01/22 04:46:59;;;;;;;;;;;1.20;96.60;;;;;;5003436;28;19929;-75
2023/01/22 04:49:26;;;;;;;;;;;1.20;96.60;;;;;;5008093;28;19937;-75
2023/01/22 04:51:52;;;;;;;;;;;1.20;96.60;;;;;;5010772;28;19929;-75
2023/01/22 04:54:19;;;;;;;;;;;1.20;96.60;;;;;;5011431;28;19937;-75
2023/01/22 04:56:47;;;;;;;;;;;1.20;96.90;;;;;;5007403;28;19937;-75
2023/01/22 04:59:13;;;;;;;;;;;1.20;96.70;;;;;;5007185;28;19933;-75
2023/01/22 05:01:41;;;;;;;;;;;1.20;96.70;;;;;;5007699;28;20299;-75
2023/01/22 05:04:07;;;;;;;;;;;1.20;96.70;;;;;;5008223;28;19984;-75
2023/01/22 05:06:34;;;;;;;;;;;1.20;96.70;;;;;;5011519;28;19987;-75
2023/01/22 05:09:00;;;;;;;;;;;1.20;96.70;;;;;;5005556;28;19926;-76
2023/01/22 05:11:27;;;;;;;;;;;1.20;96.70;;;;;;5011953;28;20330;-75
2023/01/22 05:13:54;;;;;;;;;;;1.20;96.70;;;;;;5008128;28;20411;-76
2023/01/22 05:16:21;;;;;;;;;;;1.20;96.70;;;;;;5006258;28;19929;-76
2023/01/22 05:18:48;;;;;;;;;;;1.20;96.70;;;;;;5014301;28;19929;-75
2023/01/22 05:21:14;;;;;;;;;;;1.20;96.70;;;;;;5006326;28;19934;-75
2023/01/22 05:23:42;;;;;;;;;;;1.20;96.70;;;;;;5007551;28;19938;-75
2023/01/22 05:26:09;;;;;;;;;;;1.20;96.70;;;;;;5009975;28;19933;-75
2023/01/22 05:28:35;;;;;;;;;;;1.20;96.70;;;;;;5008448;28;19929;-75
2023/01/22 05:31:03;;;;;;;;;;;1.20;96.80;;;;;;5007137;28;20379;-75
2023/01/22 05:33:30;;;;;;;;;;;1.20;96.70;;;;;;5007724;28;19933;-74
2023/01/22 05:35:57;;;;;;;;;;;1.20;96.70;;;;;;5008399;28;19933;-75
2023/01/22 05:38:23;;;;;;;;;;;1.20;96.70;;;;;;5011315;28;20032;-74
2023/01/22 05:40:50;;;;;;;;;;;1.30;96.70;;;;;;5008009;28;19983;-74
2023/01/22 05:43:16;;;;;;;;;;;1.20;96.70;;;;;;5008005;28;19933;-75
2023/01/22 05:45:43;;;;;;;;;;;1.20;96.70;;;;;;5010034;28;20511;-74
2023/01/22 05:48:11;;;;;;;;;;;1.20;96.70;;;;;;4995090;28;19956;-75
2023/01/22 05:50:37;;;;;;;;;;;1.20;96.70;;;;;;5007471;28;19929;-76
2023/01/22 05:53:04;;;;;;;;;;;1.20;96.70;;;;;;5006473;28;19929;-76
2023/01/22 05:55:31;;;;;;;;;;;1.20;96.70;;;;;;5007576;28;19926;-75
2023/01/22 05:57:58;;;;;;;;;;;1.20;96.70;;;;;;5007086;28;19925;-75
2023/01/22 06:00:24;;;;;;;;;;;1.20;96.70;;;;;;5005826;28;19929;-75
2023/01/22 06:02:54;;;;;;;;;;;1.20;96.70;;;;;;5007403;28;20437;-75
2023/01/22 06:05:22;;;;;;;;;;;1.20;96.80;;;;;;5010615;28;19936;-75
2023/01/22 06:07:48;;;;;;;;;;;1.20;96.80;;;;;;5008586;28;19932;-75
2023/01/22 06:10:15;;;;;;;;;;;1.20;96.80;;;;;;5003024;28;19929;-76
2023/01/22 06:12:42;;;;;;;;;;;1.30;96.80;;;;;;5011876;28;19929;-75
2023/01/22 06:15:09;;;;;;;;;;;1.20;96.80;;;;;;5009392;28;19960;-75
2023/01/22 06:17:35;;;;;;;;;;;1.20;96.80;;;;;;5007075;28;19932;-75
2023/01/22 06:20:02;;;;;;;;;;;1.30;96.80;;;;;;5002391;28;19929;-75
2023/01/22 06:22:30;;;;;;;;;;;1.20;96.80;;;;;;5008288;28;19937;-75
2023/01/22 06:24:57;;;;;;;;;;;1.20;96.80;;;;;;5006252;28;19932;-75
2023/01/22 06:27:23;;;;;;;;;;;1.30;96.90;;;;;;5002429;28;19937;-75
2023/01/22 06:29:50;;;;;;;;;;;1.30;96.90;;;;;;5008367;28;20591;-75
2023/01/22 06:32:16;;;;;;;;;;;1.20;96.90;;;;;;5010808;28;20482;-75
2023/01/22 06:34:43;;;;;;;;;;;1.30;96.90;;;;;;5005442;28;20648;-75
2023/01/22 06:37:10;;;;;;;;;;;1.30;96.90;;;;;;5011577;28;20526;-75
2023/01/22 06:39:37;;;;;;;;;;;1.20;96.80;;;;;;5001370;28;19933;-75
2023/01/22 06:42:04;;;;;;;;;;;1.30;96.90;;;;;;5001670;28;19936;-74
2023/01/22 06:44:31;;;;;;;;;;;1.20;96.90;;;;;;5008770;28;19929;-75
2023/01/22 06:46:57;;;;;;;;;;;1.20;96.90;;;;;;5007664;28;19933;-74
2023/01/22 06:49:24;;;;;;;;;;;1.30;96.90;;;;;;5005564;28;19933;-75
2023/01/22 06:51:50;;;;;;;;;;;1.30;96.90;;;;;;5009364;28;19937;-75
2023/01/22 06:54:17;;;;;;;;;;;1.30;96.90;;;;;;5008842;28;19934;-75
2023/01/22 06:56:45;;;;;;;;;;;1.30;96.90;;;;;;5004006;28;19929;-74
2023/01/22 06:59:11;;;;;;;;;;;1.30;96.90;;;;;;4997352;28;19930;-75
2023/01/22 07:01:38;;;;;;;;;;;1.20;96.90;;;;;;5006859;28;19933;-75
2023/01/22 07:04:05;;;;;;;;;;;1.30;97.00;;;;;;5008846;28;19929;-75
2023/01/22 07:06:31;;;;;;;;;;;1.30;96.90;;;;;;5010132;28;19937;-75
2023/01/22 07:08:58;;;;;;;;;;;1.20;96.90;;;;;;5004072;28;19987;-75
2023/01/22 07:11:24;;;;;;;;;;;1.30;96.90;;;;;;5001196;28;19948;-75
2023/01/22 07:13:52;;;;;;;;;;;1.30;96.90;;;;;;5010257;28;19936;-75
2023/01/22 07:16:18;;;;;;;;;;;1.30;96.90;;;;;;5007068;28;20731;-75
2023/01/22 07:18:45;;;;;;;;;;;1.20;96.90;;;;;;5001337;28;19991;-74
2023/01/22 07:21:12;;;;;;;;;;;1.30;96.90;;;;;;5004650;28;19934;-74
2023/01/22 07:23:40;;;;;;;;;;;1.30;96.90;;;;;;4999972;28;19975;-75
2023/01/22 07:26:06;;;;;;;;;;;1.30;96.90;;;;;;4996780;28;19976;-75
2023/01/22 07:28:33;;;;;;;;;;;1.30;96.90;;;;;;5002413;28;19930;-75
2023/01/22 07:31:02;;;;;;;;;;;1.30;96.90;;;;;;4999480;28;19934;-75
2023/01/22 07:33:28;;;;;;;;;;;1.30;96.90;;;;;;5004032;28;19929;-75
2023/01/22 07:35:56;;;;;;;;;;;1.30;96.90;;;;;;5003811;28;19941;-75
2023/01/22 07:38:22;;;;;;;;;;;1.30;96.90;;;;;;5000965;28;19969;-75
2023/01/22 07:40:49;;;;;;;;;;;1.30;96.90;;;;;;5000283;28;19940;-75
2023/01/22 07:43:16;;;;;;;;;;;1.30;96.90;;;;;;5003278;28;20502;-75
2023/01/22 07:45:43;;;;;;;;;;;1.30;97.00;;;;;;4997521;28;20033;-76
2023/01/22 07:48:11;;;;;;;;;;;1.30;97.00;;;;;;4999045;28;22142;-75
2023/01/22 07:50:39;;;;;;;;;;;1.30;97.00;;;;;;5004653;28;19939;-75
2023/01/22 07:53:05;;;;;;;;;;;1.30;97.30;;;;;;5006996;28;19929;-75
2023/01/22 07:55:32;;;;;;;;;;;1.30;97.10;;;;;;5008033;28;19975;-76
2023/01/22 07:57:59;;;;;;;;;;;1.30;97.10;;;;;;5003311;28;19936;-75
2023/01/22 08:00:25;;;;;;;;;;;1.30;97.40;;;;;;5002867;28;19935;-75
2023/01/22 08:02:52;;;;;;;;;;;1.30;97.00;;;;;;5008276;28;19952;-75
2023/01/22 08:05:20;;;;;;;;;;;1.30;97.10;;;;;;5010078;28;19940;-76
2023/01/22 08:07:46;;;;;;;;;;;1.30;97.00;;;;;;5007959;28;19934;-75
2023/01/22 08:10:14;;;;;;;;;;;1.40;97.00;;;;;;5006860;28;19933;-74
2023/01/22 08:12:41;;;;;;;;;;;1.30;97.00;;;;;;5006217;28;19981;-75
2023/01/22 08:15:08;;;;;;;;;;;1.30;97.10;;;;;;5003533;28;19933;-75
2023/01/22 08:17:34;;;;;;;;;;;1.30;97.10;;;;;;5001030;28;19937;-76
2023/01/22 08:20:01;;;;;;;;;;;1.30;97.20;;;;;;5001651;28;20442;-75
2023/01/22 08:22:28;;;;;;;;;;;1.30;97.20;;;;;;5004828;28;20009;-75
2023/01/22 08:24:55;;;;;;;;;;;1.40;97.20;;;;;;4996790;28;20450;-75
2023/01/22 08:27:22;;;;;;;;;;;1.40;97.20;;;;;;4998564;28;19929;-75
2023/01/22 08:29:49;;;;;;;;;;;1.40;97.20;;;;;;5001377;28;19930;-75
2023/01/22 08:32:16;;;;;;;;;;;1.40;97.20;;;;;;5004436;28;20015;-75
2023/01/22 08:34:42;;;;;;;;;;;1.40;97.30;;;;;;5001987;28;20016;-75
2023/01/22 08:37:09;;;;;;;;;;;1.40;97.30;;;;;;5007152;28;19978;-77
2023/01/22 08:39:37;;;;;;;;;;;1.40;97.30;;;;;;5002905;28;19936;-77
2023/01/22 08:42:03;;;;;;;;;;;1.40;97.30;;;;;;5003526;28;19936;-72
2023/01/22 08:44:30;;;;;;;;;;;1.40;97.30;;;;;;5011693;28;19984;-71
2023/01/22 08:46:57;;;;;;;;;;;1.40;97.20;;;;;;5015174;28;21814;-72
2023/01/22 08:49:24;;;;;;;;;;;1.40;97.20;;;;;;5007105;28;19936;-72
2023/01/22 08:51:50;;;;;;;;;;;1.40;97.30;;;;;;5007056;28;19933;-72
2023/01/22 08:54:17;;;;;;;;;;;1.40;97.30;;;;;;5009617;28;20386;-72
2023/01/22 08:56:46;;;;;;;;;;;1.40;97.40;;;;;;5003706;28;19936;-72
2023/01/22 08:59:13;;;;;;;;;;;1.40;97.30;;;;;;5007717;28;20316;-71
2023/01/22 09:01:40;;;;;;;;;;;1.40;97.30;;;;;;5008422;28;19936;-71
2023/01/22 09:04:07;;;;;;;;;;;1.40;97.40;;;;;;5013217;28;19929;-72
2023/01/22 09:06:33;;;;;;;;;;;1.40;97.40;;;;;;5008492;28;20012;-72
2023/01/22 09:09:00;;;;;;;;;;;1.40;97.40;;;;;;5012062;28;19935;-72
2023/01/22 09:11:28;;;;;;;;;;;1.40;97.40;;;;;;5007787;28;19933;-72
2023/01/22 09:13:56;;;;;;;;;;;1.40;97.40;;;;;;5016071;28;20821;-73
2023/01/22 09:16:22;;;;;;;;;;;1.40;97.30;;;;;;5006631;28;19934;-73
2023/01/22 09:18:49;;;;;;;;;;;1.40;97.30;;;;;;5004635;28;19930;-73
2023/01/22 09:21:15;;;;;;;;;;;1.40;97.30;;;;;;5006571;28;19937;-72
2023/01/22 09:23:42;;;;;;;;;;;1.40;97.30;;;;;;5008226;28;19929;-71
2023/01/22 09:26:08;;;;;;;;;;;1.40;97.30;;;;;;5006939;28;19933;-73
2023/01/22 09:28:35;;;;;;;;;;;1.40;97.30;;;;;;5012669;28;19937;-72
2023/01/22 09:31:03;;;;;;;;;;;1.40;97.20;;;;;;5010386;28;19936;-73
2023/01/22 09:33:30;;;;;;;;;;;1.40;97.30;;;;;;5005728;28;19929;-71
2023/01/22 09:36:05;;;;;;;;;;;1.40;97.30;;;;;;5005651;28;19929;-72
2023/01/22 09:38:32;;;;;;;;;;;1.40;97.20;;;;;;5010760;28;19987;-72
2023/01/22 09:41:01;;;;;;;;;;;1.50;97.30;;;;;;5006165;28;20480;-73
2023/01/22 09:43:30;;;;;;;;;;;1.50;97.30;;;;;;5010170;28;19933;-72
2023/01/22 09:45:58;;;;;;;;;;;1.50;97.40;;;;;;5005885;28;19930;-73
2023/01/22 09:48:29;;;;;;;;;;;1.50;97.40;;;;;;5007584;28;19933;-72
2023/01/22 09:50:55;;;;;;;;;;;1.50;97.50;;;;;;5012306;28;19929;-72
2023/01/22 09:53:22;;;;;;;;;;;1.50;97.40;;;;;;5012606;28;19929;-71
2023/01/22 09:55:51;;;;;;;;;;;1.50;97.40;;;;;;5002189;28;19976;-72
2023/01/22 09:58:18;;;;;;;;;;;1.50;97.40;;;;;;5006021;28;19932;-72
2023/01/22 10:00:48;;;;;;;;;;;1.50;97.40;;;;;;5003592;28;19929;-73
2023/01/22 10:03:18;;;;;;;;;;;1.50;97.40;;;;;;5008783;28;19937;-72
2023/01/22 10:05:48;;;;;;;;;;;1.50;97.40;;;;;;5006774;28;20048;-72
2023/01/22 10:08:17;;;;;;;;;;;1.50;97.40;;;;;;5008580;28;19930;-73
2023/01/22 10:10:44;;;;;;;;;;;1.50;97.30;;;;;;5002873;28;19934;-72
2023/01/22 10:13:12;;;;;;;;;;;1.50;97.40;;;;;;5009401;28;19949;-73
2023/01/22 10:15:39;;;;;;;;;;;1.50;97.30;;;;;;5006798;28;19933;-73
2023/01/22 10:18:21;;;;;;;;;;;1.50;97.40;;;;;;5007154;28;19929;-72
2023/01/22 10:20:50;;;;;;;;;;;1.60;97.40;;;;;;5001615;28;20511;-73
2023/01/22 10:23:17;;;;;;;;;;;1.60;97.50;;;;;;5006661;28;19936;-73
2023/01/22 10:25:44;;;;;;;;;;;1.60;97.50;;;;;;5011232;28;19936;-72
2023/01/22 10:28:11;;;;;;;;;;;1.50;97.50;;;;;;5004590;28;19988;-72
2023/01/22 10:30:44;;;;;;;;;;;1.60;97.40;;;;;;5004814;28;19937;-73
2023/01/22 10:33:15;;;;;;;;;;;1.60;97.40;;;;;;5004280;28;20422;-73
2023/01/22 10:35:42;;;;;;;;;;;1.50;97.40;;;;;;5005923;28;19937;-73
2023/01/22 10:38:21;;;;;;;;;;;1.60;97.40;;;;;;5006581;28;19929;-73
2023/01/22 10:40:52;;;;;;;;;;;1.60;97.50;;;;;;5012627;28;19929;-72
2023/01/22 10:43:18;;;;;;;;;;;1.60;97.40;;;;;;5005822;28;20046;-73
2023/01/22 10:45:50;;;;;;;;;;;1.60;97.40;;;;;;5011437;28;20293;-72
2023/01/22 10:48:17;;;;;;;;;;;1.60;97.40;;;;;;5007845;28;20566;-73
2023/01/22 10:50:45;;;;;;;;;;;1.60;97.40;;;;;;5004454;28;19929;-73
2023/01/22 10:53:17;;;;;;;;;;;1.60;97.40;;;;;;5009389;28;19964;-73
2023/01/22 10:55:50;;;;;;;;;;;1.60;97.30;;;;;;5005882;28;19972;-74
2023/01/22 10:58:18;;;;;;;;;;;1.70;97.30;;;;;;5004788;28;19976;-73
2023/01/22 11:00:54;;;;;;;;;;;1.70;97.30;;;;;;5004500;28;20392;-73
2023/01/22 11:03:22;;;;;;;;;;;1.70;97.40;;;;;;5000122;28;19984;-73
2023/01/22 11:05:51;;;;;;;;;;;1.70;97.50;;;;;;5013616;28;20568;-73
2023/01/22 11:08:19;;;;;;;;;;;1.70;97.50;;;;;;5012266;28;20043;-73
2023/01/22 11:10:48;;;;;;;;;;;1.70;97.50;;;;;;5004969;28;20653;-72
2023/01/22 11:13:17;;;;;;;;;;;1.70;97.40;;;;;;5005547;28;19934;-73
2023/01/22 11:15:45;;;;;;;;;;;1.70;97.30;;;;;;5009063;28;20474;-73
2023/01/22 11:18:16;;;;;;;;;;;1.70;97.40;;;;;;5003596;28;20020;-73
2023/01/22 11:20:45;;;;;;;;;;;1.70;97.40;;;;;;5003632;28;20307;-73
2023/01/22 11:23:16;;;;;;;;;;;1.70;97.40;;;;;;5002518;28;19933;-73
2023/01/22 11:25:45;;;;;;;;;;;1.70;97.40;;;;;;5008930;28;20453;-73
2023/01/22 11:28:21;;;;;;;;;;;1.70;97.40;;;;;;5002282;28;19940;-73
2023/01/22 11:30:52;;;;;;;;;;;1.80;97.50;;;;;;5003094;28;19925;-72
2023/01/22 11:33:26;;;;;;;;;;;1.80;97.50;;;;;;5004605;28;19925;-72
2023/01/22 11:35:56;;;;;;;;;;;1.80;97.60;;;;;;5010760;28;19929;-72
2023/01/22 11:38:27;;;;;;;;;;;1.80;97.60;;;;;;5000464;28;20620;-71
2023/01/22 11:40:59;;;;;;;;;;;1.80;97.60;;;;;;5004826;28;20452;-72
2023/01/22 11:43:33;;;;;;;;;;;1.80;97.50;;;;;;5006234;28;20024;-72
2023/01/22 11:46:12;;;;;;;;;;;1.80;97.60;;;;;;5003870;28;19930;-72
2023/01/22 11:48:47;;;;;;;;;;;1.90;97.70;;;;;;5005005;28;20386;-73
2023/01/22 11:51:19;;;;;;;;;;;1.90;97.70;;;;;;5009276;28;19936;-72
2023/01/22 11:53:53;;;;;;;;;;;1.90;98.00;;;;;;5007283;28;20429;-73
2023/01/22 11:56:24;;;;;;;;;;;1.90;97.70;;;;;;5002176;28;19925;-73
2023/01/22 11:58:56;;;;;;;;;;;1.90;97.70;;;;;;5004315;28;19941;-72
2023/01/22 12:01:27;;;;;;;;;;;1.90;97.60;;;;;;5005875;28;19933;-73
2023/01/22 12:04:14;;;;;;;;;;;1.90;97.60;;;;;;5004158;28;19929;-73
2023/01/22 12:06:47;;;;;;;;;;;1.90;97.50;;;;;;5008968;28;20011;-73
2023/01/22 12:09:18;;;;;;;;;;;2.00;97.60;;;;;;5008347;28;20492;-73
2023/01/22 12:11:53;;;;;;;;;;;1.90;97.50;;;;;;4994686;28;19926;-72
2023/01/22 12:14:32;;;;;;;;;;;2.00;97.50;;;;;;5005662;28;19925;-73
2023/01/22 12:17:03;;;;;;;;;;;2.00;97.50;;;;;;5002846;28;19940;-72
2023/01/22 12:19:48;;;;;;;;;;;2.00;97.50;;;;;;5008083;28;19933;-73
2023/01/22 12:22:21;;;;;;;;;;;2.00;97.40;;;;;;5012106;28;19936;-73
2023/01/22 12:24:49;;;;;;;;;;;2.00;97.40;;;;;;5011894;28;20445;-72
2023/01/22 12:27:20;;;;;;;;;;;2.00;97.40;;;;;;5008846;28;20478;-73
2023/01/22 12:29:52;;;;;;;;;;;2.10;97.40;;;;;;5006085;28;20477;-72
2023/01/22 12:32:21;;;;;;;;;;;2.10;97.30;;;;;;5010117;28;19929;-73
2023/01/22 12:34:52;;;;;;;;;;;2.10;97.30;;;;;;5012075;28;20421;-73
2023/01/22 12:37:20;;;;;;;;;;;2.10;97.30;;;;;;5009244;28;19933;-73
2023/01/22 12:39:50;;;;;;;;;;;2.10;97.20;;;;;;5013777;28;19930;-74
2023/01/22 12:42:22;;;;;;;;;;;2.10;97.20;;;;;;5010690;28;19929;-73
2023/01/22 12:44:56;;;;;;;;;;;2.20;97.30;;;;;;5014107;28;19956;-73
2023/01/22 12:47:27;;;;;;;;;;;2.10;97.10;;;;;;5002016;28;19943;-73
2023/01/22 12:49:53;;;;;;;;;;;2.20;97.10;;;;;;5004693;28;19936;-73
2023/01/22 12:52:31;;;;;;;;;;;2.20;97.10;;;;;;5007620;28;19934;-73
2023/01/22 12:54:57;;;;;;;;;;;2.20;97.00;;;;;;5001683;28;20305;-73
2023/01/22 12:57:25;;;;;;;;;;;2.20;97.00;;;;;;5003780;28;20312;-73
2023/01/22 12:59:54;;;;;;;;;;;2.20;97.00;;;;;;5006274;28;20330;-73
2023/01/22 13:02:23;;;;;;;;;;;2.20;97.00;;;;;;5013443;28;19933;-73
2023/01/22 13:04:50;;;;;;;;;;;2.20;97.00;;;;;;5019739;28;19933;-72
2023/01/22 13:07:21;;;;;;;;;;;2.20;97.00;;;;;;5008874;28;19933;-73
2023/01/22 13:09:48;;;;;;;;;;;2.30;97.00;;;;;;5006541;28;19967;-80
2023/01/22 13:12:25;;;;;;;;;;;2.30;97.10;;;;;;5004172;28;19934;-78
2023/01/22 13:14:53;;;;;;;;;;;2.30;97.10;;;;;;5012512;28;19937;-78
2023/01/22 13:17:21;;;;;;;;;;;2.30;97.00;;;;;;5005407;28;19937;-79
2023/01/22 13:19:50;;;;;;;;;;;2.30;97.00;;;;;;5009853;28;19947;-79
2023/01/22 13:22:17;;;;;;;;;;;2.30;97.00;;;;;;5013254;28;20030;-78
2023/01/22 13:24:50;;;;;;;;;;;2.40;97.10;;;;;;5006253;28;19929;-78
2023/01/22 13:27:22;;;;;;;;;;;2.30;97.10;;;;;;5007844;28;19987;-79
2023/01/22 13:29:48;;;;;;;;;;;2.30;97.10;;;;;;5001860;28;19933;-80
2023/01/22 13:32:17;;;;;;;;;;;2.30;97.10;;;;;;5009062;28;19929;-78
2023/01/22 13:34:44;;;;;;;;;;;2.30;97.00;;;;;;5010077;28;20027;-78
2023/01/22 13:37:19;;;;;;;;;;;2.40;97.10;;;;;;5009905;28;19925;-78
2023/01/22 13:39:46;;;;;;;;;;;2.40;97.10;;;;;;5009038;28;20291;-78
2023/01/22 13:42:12;;;;;;;;;;;2.40;97.10;;;;;;5006612;28;19980;-80
2023/01/22 13:44:41;;;;;;;;;;;2.40;97.10;;;;;;5011131;28;19937;-78
2023/01/22 13:47:07;;;;;;;;;;;2.40;97.10;;;;;;5008513;28;19960;-79
2023/01/22 13:49:41;;;;;;;;;;;2.40;97.10;;;;;;5005789;28;19929;-78
2023/01/22 13:52:08;;;;;;;;;;;2.40;97.10;;;;;;5010092;28;19960;-79
2023/01/22 13:54:35;;;;;;;;;;;2.40;97.10;;;;;;5009661;28;19933;-77
2023/01/22 13:57:02;;;;;;;;;;;2.50;97.10;;;;;;5007605;28;20384;-78
2023/01/22 13:59:33;;;;;;;;;;;2.50;97.10;;;;;;5010017;28;19929;-77
2023/01/22 14:02:11;;;;;;;;;;;2.50;97.10;;;;;;5006747;28;20473;-77
2023/01/22 14:04:39;;;;;;;;;;;2.40;97.10;;;;;;5014161;28;19929;-77
2023/01/22 14:07:05;;;;;;;;;;;2.50;97.10;;;;;;5001132;28;20398;-78
2023/01/22 14:09:33;;;;;;;;;;;2.40;97.10;;;;;;5003991;28;21401;-78
2023/01/22 14:12:00;;;;;;;;;;;2.50;97.10;;;;;;5006903;28;19929;-79
2023/01/22 14:14:27;;;;;;;;;;;2.50;97.10;;;;;;5006700;28;19933;-78
2023/01/22 14:16:53;;;;;;;;;;;2.40;97.10;;;;;;5011633;28;19929;-78
2023/01/22 14:19:20;;;;;;;;;;;2.50;97.20;;;;;;5008273;28;19936;-79
2023/01/22 14:21:48;;;;;;;;;;;2.50;97.20;;;;;;5001845;28;19983;-78
2023/01/22 14:24:14;;;;;;;;;;;2.50;97.20;;;;;;5002584;28;19929;-77
2023/01/22 14:26:41;;;;;;;;;;;2.50;97.20;;;;;;5006538;28;19933;-79
2023/01/22 14:29:08;;;;;;;;;;;2.50;97.20;;;;;;5006239;28;19995;-77
2023/01/22 14:31:34;;;;;;;;;;;2.50;97.20;;;;;;5001574;28;19929;-78
2023/01/22 14:34:01;;;;;;;;;;;2.50;97.20;;;;;;5004737;28;19993;-78
2023/01/22 14:36:27;;;;;;;;;;;2.50;97.20;;;;;;5003171;28;19937;-80
2023/01/22 14:38:56;;;;;;;;;;;2.50;97.20;;;;;;5002188;28;20453;-79
2023/01/22 14:41:23;;;;;;;;;;;2.40;97.20;;;;;;5001466;28;19933;-79
2023/01/22 14:43:49;;;;;;;;;;;2.50;97.20;;;;;;5008261;28;19961;-78